Tawakoni's Hourly Summary for Tuesday, March 14, 2017
Hour Temp
(f)
RH
(%)
Solar Rad.
(MJ/m2)
Rainfall
(in)
Wind
(mph)
3/14/2017 12:00 AM 43 45 0 0 3.5
3/14/2017 1:00 AM 40 51 0 0 3.5
3/14/2017 2:00 AM 38 56 0 0 2.67
3/14/2017 3:00 AM 37 61 0 0 2.14
3/14/2017 4:00 AM 36 65 0 0 1.71
3/14/2017 5:00 AM 33 73 0 0 0.29
3/14/2017 6:00 AM 31 85 0 0 0.43
3/14/2017 7:00 AM 31 81 0 0 0.8
3/14/2017 8:00 AM 32 80 0.03 0 0.76
3/14/2017 9:00 AM 35 63 0.47 0 1.05
3/14/2017 10:00 AM 41 51 1.17 0 3.94
3/14/2017 11:00 AM 46 44 1.77 0 4.39
3/14/2017 12:00 PM 48 37 2.43 0 3.35
3/14/2017 1:00 PM 51 35 2.79 0 3.06
3/14/2017 2:00 PM 54 35 2.95 0 3.89
3/14/2017 3:00 PM 56 33 2.84 0 3.74
3/14/2017 4:00 PM 58 32 2.59 0 3.86
3/14/2017 5:00 PM 59 30 1.62 0 2.71
3/14/2017 6:00 PM 59 32 0.93 0 4.11
3/14/2017 7:00 PM 57 35 0.43 0 3.67
3/14/2017 8:00 PM 53 43 0.02 0 1.02
3/14/2017 9:00 PM 49 54 0 0 1.18
3/14/2017 10:00 PM 48 58 0 0 1.48
3/14/2017 11:00 PM 50 57 0 0 2.21
Data Summary 45 51 20.04 0.00 2.48